Airport View

Enter AWOS ICAO identifier for current METAR.

ex. KFNL

25 May 2020 02:20

Frequency: 133.850

Phone: 719-539-5268

Other Area AWOS: KMYP - KAEJ - K7BM - K04V

TAF AMD KASE 250011Z 2500/2524 34008G16KT P6SM VCSH SCT040 BKN060 FM250200 32006KT P6SM VCSH SCT045 BKN070 FM250400 VRB04KT P6SM FEW050 FM252000 34009KT P6SM SCT080